createdAt,value
2019-03-23T00:01:13.756Z,5.60
2019-03-23T00:03:42.267Z,5.70
2019-03-23T00:06:10.712Z,5.70
2019-03-23T00:08:39.176Z,5.70
2019-03-23T00:11:07.624Z,5.80
2019-03-23T00:13:36.079Z,5.80
2019-03-23T00:16:04.536Z,5.70
2019-03-23T00:18:33.059Z,5.70
2019-03-23T00:21:01.495Z,5.70
2019-03-23T00:23:29.963Z,5.70
2019-03-23T00:25:58.392Z,5.60
2019-03-23T00:28:26.824Z,5.60
2019-03-23T00:30:55.286Z,5.60
2019-03-23T00:33:23.731Z,5.50
2019-03-23T00:35:52.168Z,5.50
2019-03-23T00:38:20.627Z,5.50
2019-03-23T00:40:49.095Z,5.50
2019-03-23T00:43:17.541Z,5.50
2019-03-23T00:45:46.022Z,5.40
2019-03-23T00:48:14.468Z,5.40
2019-03-23T00:50:42.923Z,5.40
2019-03-23T00:53:11.371Z,5.30
2019-03-23T00:55:40.615Z,5.20
2019-03-23T00:58:09.127Z,5.20
2019-03-23T01:00:37.567Z,5.00
2019-03-23T01:03:06.028Z,4.90
2019-03-23T01:05:34.495Z,4.90
2019-03-23T01:08:02.964Z,4.80
2019-03-23T01:10:31.420Z,4.80
2019-03-23T01:12:59.864Z,4.70
2019-03-23T01:15:28.343Z,4.70
2019-03-23T01:17:56.811Z,4.70
2019-03-23T01:20:25.255Z,4.70
2019-03-23T01:22:53.799Z,4.80
2019-03-23T01:25:22.271Z,4.70
2019-03-23T01:27:50.751Z,4.70
2019-03-23T01:30:19.286Z,4.70
2019-03-23T01:32:47.921Z,4.70
2019-03-23T01:35:16.360Z,4.80
2019-03-23T01:37:44.803Z,4.80
2019-03-23T01:40:13.952Z,4.70
2019-03-23T01:42:42.386Z,4.60
2019-03-23T01:45:12.784Z,4.60
2019-03-23T01:47:41.301Z,4.60
2019-03-23T01:50:11.801Z,4.50
2019-03-23T01:52:40.712Z,4.50
2019-03-23T01:55:09.422Z,4.40
2019-03-23T01:57:37.879Z,4.40
2019-03-23T02:00:09.135Z,4.30
2019-03-23T02:02:37.584Z,4.30
2019-03-23T02:05:07.781Z,4.30
2019-03-23T02:07:36.232Z,4.30
2019-03-23T02:10:08.017Z,4.20
2019-03-23T02:12:36.436Z,4.20
2019-03-23T02:15:08.020Z,4.20
2019-03-23T02:17:37.359Z,4.30
2019-03-23T02:20:08.663Z,4.20
2019-03-23T02:22:37.097Z,4.10
2019-03-23T02:25:07.095Z,4.10
2019-03-23T02:27:35.520Z,4.00
2019-03-23T02:30:05.694Z,4.10
2019-03-23T02:32:34.164Z,4.00
2019-03-23T02:35:02.603Z,4.00
2019-03-23T02:37:31.064Z,3.90
2019-03-23T02:39:59.597Z,3.80
2019-03-23T02:42:28.044Z,3.80
2019-03-23T02:44:56.486Z,3.80
2019-03-23T02:47:24.946Z,3.80
2019-03-23T02:49:53.377Z,3.70
2019-03-23T02:52:21.822Z,3.60
2019-03-23T02:54:50.288Z,3.60
2019-03-23T02:57:18.719Z,3.60
2019-03-23T02:59:47.183Z,3.70
2019-03-23T03:02:15.613Z,3.70
2019-03-23T03:04:44.140Z,3.70
2019-03-23T03:07:12.621Z,3.60
2019-03-23T03:09:41.072Z,3.60
2019-03-23T03:12:28.863Z,3.60
2019-03-23T03:14:57.321Z,3.50
2019-03-23T03:17:25.797Z,3.40
2019-03-23T03:19:54.235Z,3.50
2019-03-23T03:22:22.669Z,3.40
2019-03-23T03:24:51.128Z,3.50
2019-03-23T03:27:19.587Z,3.40
2019-03-23T03:29:48.017Z,3.40
2019-03-23T03:32:16.487Z,3.40
2019-03-23T03:34:44.944Z,3.30
2019-03-23T03:37:13.408Z,3.30
2019-03-23T03:39:41.844Z,3.30
2019-03-23T03:42:11.004Z,3.30
2019-03-23T03:44:39.442Z,3.30
2019-03-23T03:47:07.887Z,3.20
2019-03-23T03:49:36.376Z,3.20
2019-03-23T03:52:04.896Z,3.20
2019-03-23T03:54:33.359Z,3.20
2019-03-23T03:57:01.857Z,3.30
2019-03-23T03:59:30.332Z,3.20
2019-03-23T04:01:58.775Z,3.20
2019-03-23T04:04:27.239Z,3.20
2019-03-23T04:06:55.657Z,3.10
2019-03-23T04:09:24.132Z,3.10
2019-03-23T04:11:52.560Z,3.10
2019-03-23T04:14:21.015Z,3.10
2019-03-23T04:16:49.461Z,3.10
2019-03-23T04:19:18.009Z,3.10
2019-03-23T04:21:46.441Z,3.10
2019-03-23T04:24:14.900Z,3.10
2019-03-23T04:26:43.336Z,3.10
2019-03-23T04:29:11.796Z,3.00
2019-03-23T04:31:41.157Z,2.90
2019-03-23T04:34:09.617Z,2.80
2019-03-23T04:36:38.059Z,2.70
2019-03-23T04:39:06.904Z,2.60
2019-03-23T04:41:35.441Z,2.70
2019-03-23T04:44:03.903Z,2.70
2019-03-23T04:46:32.333Z,2.70
2019-03-23T04:49:00.811Z,2.70
2019-03-23T04:51:29.252Z,2.80
2019-03-23T04:53:57.683Z,2.80
2019-03-23T04:56:26.128Z,2.80
2019-03-23T04:58:54.581Z,2.70
2019-03-23T05:01:23.028Z,2.70
2019-03-23T05:03:51.471Z,2.70
2019-03-23T05:06:19.928Z,2.70
2019-03-23T05:08:48.383Z,2.80
2019-03-23T05:11:16.835Z,2.80
2019-03-23T05:13:45.264Z,2.80
2019-03-23T05:16:13.718Z,2.90
2019-03-23T05:18:42.174Z,2.90
2019-03-23T05:21:11.256Z,2.90
2019-03-23T05:23:43.080Z,2.90
2019-03-23T05:26:11.610Z,2.90
2019-03-23T05:28:40.063Z,2.90
2019-03-23T05:31:08.503Z,2.90
2019-03-23T05:33:36.972Z,3.00
2019-03-23T05:36:05.400Z,3.00
2019-03-23T05:38:44.011Z,3.00
2019-03-23T05:41:04.475Z,3.20
2019-03-23T05:43:32.931Z,3.30
2019-03-23T05:46:01.394Z,3.40
2019-03-23T05:48:29.911Z,3.50
2019-03-23T05:50:58.413Z,3.60
2019-03-23T05:53:26.860Z,4.00
2019-03-23T05:55:55.322Z,4.60
2019-03-23T05:58:23.747Z,4.90
2019-03-23T06:00:52.215Z,5.30
2019-03-23T06:03:20.681Z,5.50
2019-03-23T06:05:49.116Z,5.40
2019-03-23T06:08:17.568Z,5.50
2019-03-23T06:10:46.004Z,5.90
2019-03-23T06:13:14.475Z,6.30
2019-03-23T06:15:42.922Z,6.20
2019-03-23T06:18:11.633Z,6.30
2019-03-23T06:20:40.075Z,6.20
2019-03-23T06:23:08.542Z,6.40
2019-03-23T06:25:36.979Z,6.90
2019-03-23T06:28:05.455Z,7.00
2019-03-23T06:30:33.903Z,7.30
2019-03-23T06:33:02.371Z,7.70
2019-03-23T06:35:30.843Z,7.80
2019-03-23T06:37:59.270Z,8.00
2019-03-23T06:40:27.739Z,8.30
2019-03-23T06:42:59.876Z,9.10
2019-03-23T06:45:26.362Z,9.40
2019-03-23T06:47:54.792Z,10.00
2019-03-23T06:50:23.253Z,10.40
2019-03-23T06:52:51.692Z,10.90
2019-03-23T06:55:20.158Z,11.30
2019-03-23T06:57:48.616Z,11.70
2019-03-23T07:00:17.431Z,11.90
2019-03-23T07:02:45.904Z,12.00
2019-03-23T07:05:14.490Z,12.00
2019-03-23T07:07:42.940Z,12.20
2019-03-23T07:10:12.969Z,12.20
2019-03-23T07:12:42.229Z,11.90
2019-03-23T07:15:19.769Z,12.30
2019-03-23T07:17:42.136Z,13.00
2019-03-23T07:20:15.432Z,13.50
2019-03-23T07:22:43.977Z,13.80
2019-03-23T07:25:12.468Z,13.70
2019-03-23T07:27:41.600Z,13.60
2019-03-23T07:30:17.539Z,13.80
2019-03-23T07:32:46.060Z,14.20
2019-03-23T07:35:15.008Z,14.70
2019-03-23T07:37:43.482Z,15.30
2019-03-23T07:40:12.582Z,16.00
2019-03-23T07:42:41.558Z,16.90
2019-03-23T07:45:11.671Z,16.90
2019-03-23T07:47:40.097Z,17.20
2019-03-23T07:50:12.948Z,17.20
2019-03-23T07:52:41.513Z,17.50
2019-03-23T07:55:11.708Z,17.80
2019-03-23T07:57:40.160Z,18.60
2019-03-23T08:00:11.255Z,18.70
2019-03-23T08:02:39.876Z,18.50
2019-03-23T08:05:08.502Z,19.40
2019-03-23T08:07:37.016Z,19.50
2019-03-23T08:10:06.210Z,20.00
2019-03-23T08:12:34.747Z,19.50
2019-03-23T08:15:03.778Z,19.10
2019-03-23T08:17:32.240Z,19.00
2019-03-23T08:20:00.700Z,18.50
2019-03-23T08:22:29.148Z,18.80
2019-03-23T08:24:57.622Z,19.40
2019-03-23T08:27:26.044Z,20.40
2019-03-23T08:29:54.514Z,20.60
2019-03-23T08:32:22.962Z,20.70
2019-03-23T08:34:51.431Z,19.70
2019-03-23T08:37:19.863Z,19.00
2019-03-23T08:39:54.853Z,18.80
2019-03-23T08:42:23.391Z,19.10
2019-03-23T08:44:51.826Z,19.30
2019-03-23T08:47:21.075Z,19.80
2019-03-23T08:49:49.561Z,20.30
2019-03-23T08:52:18.202Z,21.60
2019-03-23T08:54:46.681Z,21.70
2019-03-23T08:57:15.198Z,20.60
2019-03-23T08:59:43.658Z,20.10
2019-03-23T09:02:12.088Z,19.80
2019-03-23T09:04:40.542Z,20.10
2019-03-23T09:07:08.985Z,20.30
2019-03-23T09:09:37.443Z,20.50
2019-03-23T09:12:05.877Z,20.50
2019-03-23T09:14:34.327Z,20.00
2019-03-23T09:17:02.789Z,20.10
2019-03-23T09:19:31.216Z,21.30
2019-03-23T09:21:59.668Z,20.90
2019-03-23T09:24:28.137Z,21.20
2019-03-23T09:26:56.581Z,21.50
2019-03-23T09:29:25.032Z,21.40
2019-03-23T09:31:53.497Z,21.30
2019-03-23T09:34:21.936Z,21.50
2019-03-23T09:36:50.388Z,22.00
2019-03-23T09:39:18.835Z,21.10
2019-03-23T09:41:47.267Z,21.40
2019-03-23T09:44:15.723Z,21.30
2019-03-23T09:46:44.171Z,20.90
2019-03-23T09:49:12.626Z,20.70
2019-03-23T09:51:41.795Z,21.10
2019-03-23T09:54:10.412Z,21.10
2019-03-23T09:56:38.853Z,20.80
2019-03-23T09:59:07.319Z,21.70
2019-03-23T10:01:35.759Z,22.50
2019-03-23T10:04:04.296Z,22.50
2019-03-23T10:06:32.719Z,22.30
2019-03-23T10:09:01.178Z,22.20
2019-03-23T10:11:29.606Z,22.50
2019-03-23T10:13:58.052Z,21.80
2019-03-23T10:16:26.505Z,21.10
2019-03-23T10:18:54.947Z,21.00
2019-03-23T10:21:23.396Z,20.80
2019-03-23T10:23:51.829Z,20.70
2019-03-23T10:26:20.282Z,20.70
2019-03-23T10:28:48.733Z,21.00
2019-03-23T10:31:17.172Z,21.50
2019-03-23T10:33:45.629Z,21.90
2019-03-23T10:36:14.067Z,21.50
2019-03-23T10:38:42.531Z,21.50
2019-03-23T10:41:11.893Z,21.40
2019-03-23T10:43:40.354Z,21.70
2019-03-23T10:46:08.796Z,21.20
2019-03-23T10:48:37.218Z,21.40
2019-03-23T10:51:05.664Z,21.50
2019-03-23T10:53:34.113Z,21.90
2019-03-23T10:56:02.603Z,22.40
2019-03-23T10:58:31.084Z,22.60
2019-03-23T11:00:59.550Z,24.10
2019-03-23T11:03:27.972Z,24.60
2019-03-23T11:05:56.444Z,24.60
2019-03-23T11:08:24.885Z,24.30
2019-03-23T11:10:53.332Z,23.90
2019-03-23T11:13:21.789Z,23.70
2019-03-23T11:15:50.228Z,23.50
2019-03-23T11:18:18.676Z,22.60
2019-03-23T11:20:47.119Z,22.80
2019-03-23T11:23:15.590Z,22.40
2019-03-23T11:25:44.006Z,22.40
2019-03-23T11:28:12.457Z,22.50
2019-03-23T11:30:40.899Z,23.30
2019-03-23T11:33:09.347Z,23.50
2019-03-23T11:35:37.802Z,24.20
2019-03-23T11:38:06.350Z,23.70
2019-03-23T11:40:34.910Z,24.30
2019-03-23T11:43:03.356Z,24.60
2019-03-23T11:45:31.808Z,24.40
2019-03-23T11:48:00.236Z,24.50
2019-03-23T11:50:28.694Z,24.40
2019-03-23T11:52:57.224Z,25.50
2019-03-23T11:55:25.652Z,24.00
2019-03-23T11:57:54.104Z,24.10
2019-03-23T12:00:22.548Z,23.30
2019-03-23T12:02:51.000Z,22.90
2019-03-23T12:05:19.452Z,22.80
2019-03-23T12:07:47.932Z,22.50
2019-03-23T12:10:16.356Z,22.00
2019-03-23T12:12:44.822Z,22.70
2019-03-23T12:15:14.100Z,23.30
2019-03-23T12:17:42.561Z,23.50
2019-03-23T12:20:11.234Z,23.00
2019-03-23T12:22:39.714Z,23.60
2019-03-23T12:25:08.128Z,24.30
2019-03-23T12:27:36.579Z,23.90
2019-03-23T12:30:10.986Z,23.70
2019-03-23T12:32:39.448Z,23.00
2019-03-23T12:35:08.025Z,23.70
2019-03-23T12:37:36.466Z,23.90
2019-03-23T12:40:06.690Z,24.60
2019-03-23T12:42:35.163Z,24.50
2019-03-23T12:45:04.460Z,24.30
2019-03-23T12:47:32.893Z,24.40
2019-03-23T12:50:01.359Z,23.90
2019-03-23T12:52:29.784Z,23.90
2019-03-23T12:54:58.257Z,24.20
2019-03-23T12:57:26.681Z,23.90
2019-03-23T12:59:55.147Z,23.60
2019-03-23T13:02:23.586Z,24.30
2019-03-23T13:04:52.038Z,24.20
2019-03-23T13:07:20.471Z,24.90
2019-03-23T13:09:48.925Z,24.90
2019-03-23T13:12:17.554Z,25.10
2019-03-23T13:14:46.001Z,23.90
2019-03-23T13:17:14.444Z,24.50
2019-03-23T13:19:42.892Z,23.90
2019-03-23T13:22:12.303Z,23.80
2019-03-23T13:24:40.747Z,23.90
2019-03-23T13:27:09.201Z,23.20
2019-03-23T13:29:37.624Z,23.00
2019-03-23T13:32:06.077Z,23.70
2019-03-23T13:34:34.525Z,23.00
2019-03-23T13:37:02.944Z,22.90
2019-03-23T13:39:31.400Z,23.60
2019-03-23T13:41:59.864Z,23.70
2019-03-23T13:44:28.310Z,23.10
2019-03-23T13:46:56.751Z,22.70
2019-03-23T13:49:25.198Z,22.80
2019-03-23T13:51:53.628Z,23.30
2019-03-23T13:54:22.095Z,23.70
2019-03-23T13:56:50.528Z,23.80
2019-03-23T13:59:18.985Z,23.70
2019-03-23T14:01:47.421Z,23.40
2019-03-23T14:04:15.884Z,23.00
2019-03-23T14:06:44.326Z,23.10
2019-03-23T14:09:12.816Z,24.00
2019-03-23T14:11:41.292Z,23.00
2019-03-23T14:14:09.744Z,22.20
2019-03-23T14:16:38.185Z,22.20
2019-03-23T14:19:06.636Z,22.00
2019-03-23T14:21:35.076Z,22.20
2019-03-23T14:24:03.563Z,22.10
2019-03-23T14:26:32.006Z,21.80
2019-03-23T14:29:00.465Z,21.80
2019-03-23T14:31:28.911Z,21.60
2019-03-23T14:33:57.382Z,21.60
2019-03-23T14:36:25.807Z,21.50
2019-03-23T14:38:54.240Z,21.40
2019-03-23T14:41:22.745Z,21.40
2019-03-23T14:43:51.171Z,20.90
2019-03-23T14:46:19.647Z,20.50
2019-03-23T14:48:48.094Z,20.40
2019-03-23T14:51:16.645Z,20.50
2019-03-23T14:53:45.072Z,20.40
2019-03-23T14:56:13.547Z,20.30
2019-03-23T14:58:42.521Z,20.40
2019-03-23T15:01:11.023Z,20.50
2019-03-23T15:03:39.501Z,20.40
2019-03-23T15:06:07.994Z,20.30
2019-03-23T15:08:36.479Z,20.30
2019-03-23T15:11:04.944Z,20.30
2019-03-23T15:13:33.381Z,20.40
2019-03-23T15:16:01.851Z,20.30
2019-03-23T15:18:30.310Z,20.00
2019-03-23T15:20:58.806Z,19.80
2019-03-23T15:23:27.324Z,19.70
2019-03-23T15:25:55.820Z,19.70
2019-03-23T15:28:24.351Z,19.70
2019-03-23T15:30:52.936Z,19.60
2019-03-23T15:33:21.431Z,19.60
2019-03-23T15:35:49.918Z,19.10
2019-03-23T15:38:18.372Z,18.90
2019-03-23T15:40:46.840Z,18.90
2019-03-23T15:43:15.324Z,18.60
2019-03-23T15:45:43.843Z,18.40
2019-03-23T15:48:12.848Z,18.10
2019-03-23T15:50:41.334Z,17.80
2019-03-23T15:53:09.880Z,17.70
2019-03-23T15:55:38.321Z,17.50
2019-03-23T15:58:06.776Z,17.50
2019-03-23T16:00:35.260Z,17.40
2019-03-23T16:03:03.738Z,17.40
2019-03-23T16:05:32.209Z,17.30
2019-03-23T16:08:00.742Z,17.20
2019-03-23T16:10:29.204Z,17.00
2019-03-23T16:12:57.671Z,16.70
2019-03-23T16:15:26.129Z,16.60
2019-03-23T16:17:54.618Z,16.40
2019-03-23T16:20:23.071Z,16.40
2019-03-23T16:22:51.568Z,16.30
2019-03-23T16:25:20.095Z,16.20
2019-03-23T16:27:48.564Z,16.00
2019-03-23T16:30:20.162Z,15.90
2019-03-23T16:32:48.671Z,15.80
2019-03-23T16:35:17.146Z,15.80
2019-03-23T16:37:45.644Z,15.70
2019-03-23T16:40:14.092Z,15.50
2019-03-23T16:42:45.651Z,15.30
2019-03-23T16:45:13.478Z,15.30
2019-03-23T16:47:42.887Z,15.20
2019-03-23T16:50:11.406Z,15.10
2019-03-23T16:52:40.034Z,15.00
2019-03-23T16:55:09.631Z,14.80
2019-03-23T16:57:38.114Z,14.70
2019-03-23T17:00:11.553Z,14.60
2019-03-23T17:02:40.066Z,14.50
2019-03-23T17:05:08.889Z,14.40
2019-03-23T17:07:37.375Z,14.30
2019-03-23T17:10:07.740Z,14.20
2019-03-23T17:12:36.289Z,14.10
2019-03-23T17:15:08.587Z,14.10
2019-03-23T17:17:37.020Z,14.00
2019-03-23T17:20:05.589Z,13.90
2019-03-23T17:22:34.112Z,13.70
2019-03-23T17:25:02.945Z,13.70
2019-03-23T17:27:31.394Z,13.60
2019-03-23T17:29:59.862Z,13.50
2019-03-23T17:32:28.310Z,13.40
2019-03-23T17:34:56.801Z,13.40
2019-03-23T17:37:25.265Z,13.30
2019-03-23T17:39:53.730Z,13.10
2019-03-23T17:42:22.180Z,13.10
2019-03-23T17:44:50.736Z,13.00
2019-03-23T17:47:19.169Z,12.90
2019-03-23T17:49:47.634Z,12.90
2019-03-23T17:52:16.112Z,12.80
2019-03-23T17:54:44.602Z,12.70
2019-03-23T17:57:13.161Z,12.60
2019-03-23T17:59:41.617Z,12.50
2019-03-23T18:02:10.065Z,12.50
2019-03-23T18:04:38.555Z,12.40
2019-03-23T18:07:07.067Z,12.40
2019-03-23T18:09:35.557Z,12.40
2019-03-23T18:12:04.020Z,12.20
2019-03-23T18:14:32.480Z,12.10
2019-03-23T18:17:00.957Z,12.00
2019-03-23T18:19:29.451Z,11.90
2019-03-23T18:21:57.899Z,11.80
2019-03-23T18:24:26.337Z,11.70
2019-03-23T18:26:54.831Z,11.70
2019-03-23T18:29:23.353Z,11.60
2019-03-23T18:31:51.864Z,11.60
2019-03-23T18:34:20.378Z,11.50
2019-03-23T18:36:48.982Z,11.40
2019-03-23T18:39:17.440Z,11.40
2019-03-23T18:41:46.023Z,11.40
2019-03-23T18:44:16.305Z,11.40
2019-03-23T18:46:44.796Z,11.30
2019-03-23T18:49:13.288Z,11.30
2019-03-23T18:51:41.769Z,11.20
2019-03-23T18:54:10.215Z,11.20
2019-03-23T18:56:38.668Z,11.60
2019-03-23T18:59:07.100Z,11.60
2019-03-23T19:01:35.589Z,11.40
2019-03-23T19:04:04.112Z,11.20
2019-03-23T19:06:32.572Z,11.10
2019-03-23T19:09:01.011Z,11.00
2019-03-23T19:11:29.476Z,10.90
2019-03-23T19:13:57.923Z,10.90
2019-03-23T19:16:26.395Z,10.90
2019-03-23T19:18:54.835Z,10.90
2019-03-23T19:21:23.307Z,10.90
2019-03-23T19:23:51.747Z,10.90
2019-03-23T19:26:20.196Z,10.90
2019-03-23T19:28:48.633Z,10.80
2019-03-23T19:31:17.134Z,10.90
2019-03-23T19:33:45.564Z,10.80
2019-03-23T19:36:14.043Z,10.70
2019-03-23T19:38:43.416Z,10.70
2019-03-23T19:41:11.882Z,10.60
2019-03-23T19:43:48.308Z,10.60
2019-03-23T19:46:10.511Z,10.50
2019-03-23T19:48:38.951Z,10.50
2019-03-23T19:51:07.457Z,10.40
2019-03-23T19:53:35.893Z,10.40
2019-03-23T19:56:04.521Z,10.40
2019-03-23T19:58:32.957Z,10.40
2019-03-23T20:01:01.425Z,10.40
2019-03-23T20:03:29.863Z,10.30
2019-03-23T20:05:58.352Z,10.30
2019-03-23T20:08:26.780Z,10.30
2019-03-23T20:10:55.236Z,10.20
2019-03-23T20:13:23.679Z,10.20
2019-03-23T20:15:52.147Z,10.10
2019-03-23T20:18:20.576Z,10.10
2019-03-23T20:20:49.067Z,10.10
2019-03-23T20:23:17.498Z,10.00
2019-03-23T20:25:45.948Z,10.00
2019-03-23T20:28:14.399Z,10.00
2019-03-23T20:30:43.528Z,10.00
2019-03-23T20:33:19.381Z,10.00
2019-03-23T20:35:42.143Z,10.00
2019-03-23T20:38:10.615Z,9.90
2019-03-23T20:40:39.061Z,9.90
2019-03-23T20:43:07.489Z,9.90
2019-03-23T20:45:35.940Z,9.90
2019-03-23T20:48:04.387Z,9.90
2019-03-23T20:50:33.063Z,9.80
2019-03-23T20:53:01.586Z,9.90
2019-03-23T20:55:30.476Z,9.80
2019-03-23T20:57:59.000Z,9.80
2019-03-23T21:00:27.512Z,9.90
2019-03-23T21:02:55.961Z,9.90
2019-03-23T21:05:33.146Z,10.00
2019-03-23T21:07:54.572Z,10.00
2019-03-23T21:10:23.014Z,10.00
2019-03-23T21:12:51.479Z,10.00
2019-03-23T21:15:19.908Z,9.90
2019-03-23T21:17:51.396Z,9.90
2019-03-23T21:20:18.533Z,9.90
2019-03-23T21:22:47.050Z,9.90
2019-03-23T21:25:15.577Z,10.00
2019-03-23T21:27:44.097Z,10.10
2019-03-23T21:30:15.407Z,10.00
2019-03-23T21:32:43.885Z,9.90
2019-03-23T21:35:12.456Z,9.90
2019-03-23T21:37:41.401Z,9.90
2019-03-23T21:40:10.765Z,9.90
2019-03-23T21:42:39.290Z,9.90
2019-03-23T21:45:08.067Z,9.80
2019-03-23T21:47:36.531Z,9.90
2019-03-23T21:50:08.204Z,9.90
2019-03-23T21:52:36.820Z,9.80
2019-03-23T21:55:06.407Z,9.80
2019-03-23T21:57:35.023Z,9.80
2019-03-23T22:00:04.103Z,9.70
2019-03-23T22:02:32.556Z,9.70
2019-03-23T22:05:00.984Z,9.60
2019-03-23T22:07:29.455Z,9.70
2019-03-23T22:09:57.908Z,9.70
2019-03-23T22:12:26.363Z,9.70
2019-03-23T22:14:54.807Z,9.70
2019-03-23T22:17:23.269Z,9.70
2019-03-23T22:19:51.710Z,9.60
2019-03-23T22:22:21.168Z,9.70
2019-03-23T22:24:49.615Z,9.60
2019-03-23T22:27:19.203Z,9.60
2019-03-23T22:29:47.815Z,9.50
2019-03-23T22:32:16.243Z,9.60
2019-03-23T22:34:44.700Z,9.60
2019-03-23T22:37:13.807Z,9.50
2019-03-23T22:39:42.264Z,9.60
2019-03-23T22:42:10.707Z,9.60
2019-03-23T22:44:39.155Z,9.60
2019-03-23T22:47:07.581Z,9.60
2019-03-23T22:49:36.107Z,9.70
2019-03-23T22:52:04.551Z,9.70
2019-03-23T22:54:33.073Z,9.60
2019-03-23T22:57:01.500Z,9.60
2019-03-23T22:59:29.956Z,9.60
2019-03-23T23:01:58.467Z,9.60
2019-03-23T23:04:26.979Z,9.70
2019-03-23T23:06:55.602Z,9.70
2019-03-23T23:09:24.055Z,9.70
2019-03-23T23:11:52.488Z,9.70
2019-03-23T23:14:20.956Z,9.70
2019-03-23T23:16:49.399Z,9.70
2019-03-23T23:19:17.845Z,9.70
2019-03-23T23:21:46.300Z,9.70
2019-03-23T23:24:14.743Z,9.70
2019-03-23T23:26:43.965Z,9.70
2019-03-23T23:29:12.390Z,9.70
2019-03-23T23:31:40.836Z,9.60
2019-03-23T23:34:09.278Z,9.60
2019-03-23T23:36:37.730Z,9.60
2019-03-23T23:39:07.240Z,9.50
2019-03-23T23:41:35.678Z,9.50
2019-03-23T23:44:04.461Z,9.50
2019-03-23T23:46:32.892Z,9.50
2019-03-23T23:49:01.345Z,9.50
2019-03-23T23:51:29.784Z,9.50
2019-03-23T23:53:58.242Z,9.40
2019-03-23T23:56:26.669Z,9.50
2019-03-23T23:58:55.131Z,9.50
